The Internet Pinball Serial Number Database or IPSND collects serial numbers of pinball machines and publishes a database of these on the Internet. Our goal is to make available a registration of all pinball machines in existence and allow tools for slicing, dicing and visualization of the data.

Games: 6,217  Serials: 51,968  Visitors: 32,819,945  Members: 3,860  Photos: 28,705  Lat/Lng: 25,265  Masks: 51,968(835.90 %)  Traits: 508  Nudges: 145,975  Backglasses: 1,862
  Most Serials: Twilight Zone(1,077)  Most Submissions: Dennis Braun(3,856)  Most Points: Dennis Braun(28,709)  Highest Quality: Jim Butler(9.15)  Most Nudges: King of Pinball(19,586)
Submitter: Fun House
Member Since: Thursday, September 22, 2016
Submissions: 2,662 (3rd)
SerialBot: 21,825 Points Total (3rd), 7.21 Average Score (3,208th)
Nudges: 2,630(16th)
DateGameSerialNumberGame PartSerialBotDetails
 Item 1 to 100 of 2662
Page:of 27 Page size:
11/17/2019 Firepower 428457 Complete Game 428457
11/16/2019 2624 Other Parts 2624
11/16/2019 Medieval Madness (Remake Standard Edition) MM1813 Complete Game MM1813
11/16/2019 Iron Man (Pro Vault Edition) 255574 Complete Game 255574
11/16/2019 Cirqus Voltaire 53362401545 Complete Game 53362401545
11/16/2019 The Wizard of Oz Emerald City Limited Edition 08706123 Complete Game 08706123
11/14/2019 Star Trek: The Next Generation 53323264112 Other Parts 53323264112
11/14/2019 Indianapolis 500 50326102181 Other Parts 50326102181
11/14/2019 Jokerz! 567I195156 Other Parts 567I195156
11/14/2019 High Speed 541I76413 Other Parts 541I76413
11/14/2019 Theatre of Magic 50439100972 Other Parts 50439100972
11/14/2019 The Flintstones 52529103641 Other Parts 52529103641
11/14/2019 The Addams Family 20017I047267 Complete Game 20017I047267
11/14/2019 Eight Ball Deluxe Limited Edition E8B1855 Other Parts E8B1855
11/14/2019 Revenge From Mars 59570102916 Other Parts 59570102916
11/14/2019 World Cup Soccer 50231107912 Other Parts 50231107912
11/14/2019 Banzai Run 566I138987 Other Parts 566I138987
11/14/2019 Star Trek: The Next Generation 51323417931 Other Parts 51323417931
11/12/2019 Red & Ted's Road Show 53324100860 Complete Game 53324100860
11/12/2019 Demolition Man 50228509631 Complete Game 50228509631
11/12/2019 High Speed 541I82752 Complete Game 541I82752
11/9/2019 Creature from the Black Lagoon 20418901590 Complete Game 20418901590
11/9/2019 Space Shuttle 53533254 Complete Game 53533254
11/9/2019 Speakeasy ESE2619 Complete Game ESE2619
11/4/2019 Funhouse 50003I745575 Complete Game 50003I745575
11/4/2019 ESM8751 Other Parts ESM8751
10/22/2019 Doctor Who 20206693830 Other Parts 20206693830
10/22/2019 Twilight Zone 50220163871 Other Parts 50220163871
10/22/2019 Taxi 553I166282 Other Parts 553I166282
10/22/2019 Twilight Zone 50220175321 Other Parts 50220175321
10/22/2019 Terminator 2: Judgment Day 50013I978252 Other Parts 50013I978252
10/22/2019 The Addams Family 20017I045635 Other Parts 20017I045635
10/22/2019 Indiana Jones: The Pinball Adventure 51017327381 Other Parts 51017327381
10/22/2019 The Getaway: High Speed II 50004I095025 Other Parts 50004I095025
10/22/2019 The Getaway: High Speed II 50004I857006 Other Parts 50004I857006
10/22/2019 The Machine: Bride of Pin·bot 50002I669722 Other Parts 50002I669722
10/22/2019 Indiana Jones: The Pinball Adventure 52217182822 Other Parts 52217182822
10/22/2019 White Water 50218746740 Other Parts 50218746740
10/21/2019 Flash Gordon EFG9751 Complete Game EFG9751
10/5/2019 Revenge From Mars 59570100503 Other Parts 59570100503
10/4/2019 Twilight Zone 50120118711 Other Parts 50120118711
10/4/2019 Bram Stoker's Dracula 50201208902 Other Parts 50201208902
10/4/2019 Bram Stoker's Dracula 50201208902 Other Parts 50201208902
10/4/2019 Indiana Jones: The Pinball Adventure 51017143022 Complete Game 51017143022
9/26/2019 Gridiron 06072 Complete Game 06072
9/22/2019 Indiana Jones: The Pinball Adventure 53317321121 Complete Game 53317321121
9/22/2019 Revenge From Mars 53370101299 Other Parts 53370101299
9/10/2019 F-14 Tomcat 554105407 Complete Game 554105407
9/6/2019 AC/DC (Pro Vault Edition) E284517 Complete Game E284517
9/5/2019 Lethal Weapon 3 68087 Complete Game 68087
9/5/2019 The Addams Family 20017593396 Complete Game 20017593396
9/1/2019 KISS (Pro) 254229 Complete Game 254229
9/1/2019 AC/DC (Pro Vault Edition) 280146 Complete Game 280146
9/1/2019 Aerosmith (Pro) 267192 Complete Game 267192
8/29/2019 Terminator 2: Judgment Day 50013I775387 Complete Game 50013I775387
8/29/2019 Terminator 2: Judgment Day 50013I778344 Complete Game 50013I778344
8/18/2019 Earthshaker 568210763 Complete Game 568210763
8/15/2019 Indiana Jones: The Pinball Adventure 50417236071 Other Parts 50417236071
8/15/2019 High Speed 541I83665 Other Parts 541I83665
8/15/2019 Star Trek: The Next Generation 50223436611 Other Parts 50223436611
8/15/2019 High Speed 541I79254 Other Parts 541I79254
8/15/2019 High Speed 541I87747 Other Parts 541I87747
8/15/2019 High Speed 541I86047 Other Parts 541I86047
8/15/2019 EPA8241 Other Parts EPA8241
8/15/2019 Mystic EMY2744 Other Parts EMY2744
8/15/2019 WHO dunnit 53344102341 Complete Game 53344102341
8/15/2019 King of Diamonds 17 Complete Game 17
8/13/2019 Space Jam 135667 Complete Game 135667
8/13/2019 Pistol Poker 535910 Complete Game 535910
8/12/2019 Indiana Jones: The Pinball Adventure 51117192342 Complete Game 51117192342
8/12/2019 Eight Ball Deluxe Limited Edition E8B1629 Complete Game E8B1629
8/12/2019 Skateball ESB1341 Other Parts ESB1341
8/12/2019 White Water 50118928860 Complete Game 50118928860
8/12/2019 Terminator 2: Judgment Day 50013771791 Complete Game 50013771791
8/12/2019 Twilight Zone 53220119072 Complete Game 53220119072
8/10/2019 Theatre of Magic 53339104616 Complete Game 53339104616
8/9/2019 Demolition Man 50728382862 Other Parts 50728382862
8/9/2019 Doctor Who 20706688120 Other Parts 20706688120
8/6/2019 09848 Other Parts 09848
8/6/2019 The Flintstones 51429102126 Other Parts 51429102126
8/6/2019 The Shadow 52532101866 Other Parts 52532101866
8/6/2019 The Flintstones 51429104828 Complete Game 51429104828
8/6/2019 Riverboat Gambler 50007I505386 Other Parts 50007I505386
8/6/2019 Dr. Dude And His Excellent Ray 2016I496561 Complete Game 2016I496561
8/6/2019 Twilight Zone 51420084391 Other Parts 51420084391
8/6/2019 The Flintstones 51429101928 Other Parts 51429101928
8/6/2019 Star Trek: The Next Generation 51423405391 Other Parts 51423405391
8/6/2019 Theatre of Magic 51439100754 Other Parts 51439100754
8/6/2019 Bram Stoker's Dracula 51401055392 Complete Game 51401055392
8/6/2019 Ghostbusters (Pro) 260134 Complete Game 260134
8/6/2019 El Dorado 06775 Complete Game 06775
8/6/2019 Indiana Jones: The Pinball Adventure 50217240052 Other Parts 50217240052
8/4/2019 Twilight Zone 53220192381 Complete Game 53220192381
8/2/2019 The Walking Dead (Limited Edition) 250152 Complete Game 250152
8/1/2019 Fish Tales 50005I195794 Other Parts 50005I195794
8/1/2019 Fire! 556I112771 Complete Game 556I112771
8/1/2019 Joust 619390 Complete Game 619390
7/31/2019 Star Wars Limited Edition 269782 Complete Game 269782
7/30/2019 Baby Pac-Man EPB2299 Complete Game EPB2299
7/30/2019 Surf Champ 13724 Complete Game 13724

Supported Browsers
Back 5 | Random | Forward 5 | List ]